Time;durP1;ratioP1;P1;durP2;ratioP2;P2;SDS_P1;SDS_P2;PMS_P1;PMS_P2;Temp;Humidity;BMP_temperature;BMP_pressure;BME280_temperature;BME280_humidity;BME280_pressure;Samples;Min_cycle;Max_cycle;Signal;HPM_P1;HPM_P2
2022/07/11 00:02:15;;;;;;;2.53;1.10;;;15.40;99.90;;;;;;4955440;28;20215;-73
2022/07/11 00:04:46;;;;;;;1.20;1.20;;;15.40;99.90;;;;;;4953277;28;20670;-73
2022/07/11 00:07:12;;;;;;;2.00;0.90;;;15.50;99.90;;;;;;4952210;28;20515;-73
2022/07/11 00:09:38;;;;;;;1.33;1.23;;;15.50;99.90;;;;;;4952730;28;20475;-73
2022/07/11 00:12:04;;;;;;;1.13;1.03;;;15.50;99.90;;;;;;4951224;28;20507;-71
2022/07/11 00:14:29;;;;;;;1.60;0.93;;;15.50;99.90;;;;;;4951773;28;20672;-70
2022/07/11 00:16:55;;;;;;;1.10;1.10;;;15.50;99.90;;;;;;4951934;28;20523;-73
2022/07/11 00:19:21;;;;;;;1.63;1.03;;;15.50;99.90;;;;;;4952270;28;20217;-73
2022/07/11 00:21:48;;;;;;;1.80;1.00;;;15.50;99.90;;;;;;4950395;28;20719;-73
2022/07/11 00:24:14;;;;;;;1.33;1.23;;;15.60;99.90;;;;;;4936168;28;20447;-75
2022/07/11 00:26:40;;;;;;;2.27;1.50;;;15.50;99.90;;;;;;4930053;29;20461;-75
2022/07/11 00:29:06;;;;;;;1.40;1.20;;;15.50;99.90;;;;;;4932806;29;20733;-73
2022/07/11 00:31:32;;;;;;;1.40;1.30;;;15.50;99.90;;;;;;4949306;28;20724;-73
2022/07/11 00:33:57;;;;;;;1.50;1.40;;;15.50;99.90;;;;;;4951914;28;20466;-73
2022/07/11 00:36:23;;;;;;;2.23;1.73;;;15.50;99.90;;;;;;4952575;28;20506;-72
2022/07/11 00:38:49;;;;;;;1.33;1.23;;;15.50;99.90;;;;;;4952927;28;20318;-73
2022/07/11 00:41:16;;;;;;;2.03;1.50;;;15.50;99.90;;;;;;4950704;28;20278;-73
2022/07/11 00:43:42;;;;;;;1.83;1.23;;;15.40;99.90;;;;;;4951449;28;20456;-74
2022/07/11 00:46:09;;;;;;;1.43;1.33;;;15.50;99.90;;;;;;4952226;28;20484;-73
2022/07/11 00:48:35;;;;;;;3.87;1.90;;;15.50;99.90;;;;;;4952330;28;20280;-73
2022/07/11 00:51:05;;;;;;;1.33;1.27;;;15.50;99.90;;;;;;4949600;28;21160;-71
2022/07/11 00:53:32;;;;;;;3.47;1.53;;;15.50;99.90;;;;;;4938062;28;20516;-73
2022/07/11 00:55:59;;;;;;;1.97;1.83;;;15.50;99.90;;;;;;4950941;28;20451;-74
2022/07/11 00:58:25;;;;;;;1.83;1.57;;;15.40;99.90;;;;;;4946617;28;20443;-73
2022/07/11 02:31:28;;;;;;;1.80;1.70;;;14.90;99.90;;;;;;5810372;23;20517;-74
2022/07/11 02:33:54;;;;;;;2.50;2.30;;;15.00;99.90;;;;;;4971199;28;20929;-75
2022/07/11 02:36:20;;;;;;;3.03;2.57;;;15.00;99.90;;;;;;4969380;28;20195;-74
2022/07/11 02:38:45;;;;;;;2.97;2.40;;;15.00;99.90;;;;;;4971687;28;20190;-75
2022/07/11 02:41:11;;;;;;;2.43;2.23;;;15.10;99.90;;;;;;4966923;28;20439;-75
2022/07/11 02:43:36;;;;;;;3.57;2.33;;;15.10;99.90;;;;;;4955133;28;20572;-75
2022/07/11 02:46:02;;;;;;;1.97;1.87;;;15.10;99.90;;;;;;4954462;28;20267;-76
2022/07/11 02:48:27;;;;;;;2.60;2.30;;;15.10;99.90;;;;;;4953068;28;20226;-75
2022/07/11 02:50:53;;;;;;;3.63;2.70;;;15.10;99.90;;;;;;4954183;28;20605;-75
2022/07/11 02:53:19;;;;;;;3.30;1.87;;;15.20;99.90;;;;;;4948655;28;20192;-75
2022/07/11 02:55:45;;;;;;;2.23;2.00;;;15.20;99.90;;;;;;4955048;28;20177;-76
2022/07/11 02:58:11;;;;;;;2.50;2.40;;;15.10;99.90;;;;;;4952527;28;20181;-75
2022/07/11 03:00:36;;;;;;;2.43;2.27;;;15.20;99.90;;;;;;4953978;28;20509;-75
2022/07/11 03:03:02;;;;;;;2.80;2.43;;;15.30;99.90;;;;;;4951727;28;20208;-74
2022/07/11 03:05:28;;;;;;;2.87;2.63;;;15.20;99.90;;;;;;4952683;29;20749;-75
2022/07/11 03:07:54;;;;;;;2.93;2.80;;;15.30;99.90;;;;;;4950544;28;20534;-75
2022/07/11 03:10:20;;;;;;;3.03;2.83;;;15.30;99.90;;;;;;4953459;29;20208;-73
2022/07/11 03:12:45;;;;;;;2.83;2.63;;;15.30;99.90;;;;;;4951801;28;20279;-75
2022/07/11 03:15:11;;;;;;;2.83;2.50;;;15.30;99.90;;;;;;4952798;28;20240;-75
2022/07/11 03:17:37;;;;;;;3.40;2.80;;;15.30;99.90;;;;;;4952798;28;20212;-75
2022/07/11 03:20:05;;;;;;;2.70;2.50;;;15.30;99.90;;;;;;4951011;29;20724;-76
2022/07/11 03:22:30;;;;;;;3.77;2.87;;;15.40;99.90;;;;;;4953129;28;20432;-76
2022/07/11 03:24:56;;;;;;;2.83;2.60;;;15.40;99.90;;;;;;4949759;28;20530;-75
2022/07/11 03:27:21;;;;;;;2.77;2.50;;;15.40;99.90;;;;;;4954260;28;20180;-75
2022/07/11 03:29:47;;;;;;;2.70;2.30;;;15.40;99.90;;;;;;4952603;28;20187;-76
2022/07/11 03:32:13;;;;;;;4.13;2.60;;;15.40;99.90;;;;;;4953775;28;20697;-76
2022/07/11 03:34:39;;;;;;;2.60;2.40;;;15.40;99.90;;;;;;4949685;28;20448;-75
2022/07/11 03:37:05;;;;;;;2.63;2.53;;;15.40;99.90;;;;;;4935132;29;20413;-75
2022/07/11 03:39:31;;;;;;;3.23;2.90;;;15.50;99.90;;;;;;4944507;29;20235;-75
2022/07/11 03:41:56;;;;;;;3.10;2.90;;;15.50;99.90;;;;;;4953441;28;20288;-76
2022/07/11 03:44:22;;;;;;;3.30;2.93;;;15.50;99.90;;;;;;4952449;29;20511;-75
2022/07/11 03:46:48;;;;;;;2.97;2.80;;;15.50;99.90;;;;;;4951913;28;20195;-75
2022/07/11 03:49:13;;;;;;;3.17;2.97;;;15.50;99.90;;;;;;4952203;28;20278;-76
2022/07/11 03:51:39;;;;;;;2.80;2.57;;;15.50;99.90;;;;;;4948860;28;20282;-74
2022/07/11 03:54:04;;;;;;;3.17;2.97;;;15.50;99.90;;;;;;4951123;29;20257;-75
2022/07/11 03:56:31;;;;;;;3.20;2.97;;;15.50;99.90;;;;;;4950028;28;20204;-75
2022/07/11 03:58:57;;;;;;;2.80;2.40;;;15.50;99.90;;;;;;4953967;28;20176;-75
2022/07/11 04:01:22;;;;;;;3.10;2.87;;;15.50;99.90;;;;;;4949937;28;20845;-75
2022/07/11 04:03:48;;;;;;;2.97;2.70;;;15.60;99.90;;;;;;4953757;28;20180;-75
2022/07/11 04:06:14;;;;;;;3.80;3.50;;;15.60;99.90;;;;;;4949515;28;20188;-75
2022/07/11 04:08:40;;;;;;;6.53;3.53;;;15.70;99.90;;;;;;4951158;29;20541;-72
2022/07/11 04:11:05;;;;;;;3.57;3.27;;;15.70;99.90;;;;;;4949765;28;20216;-76
2022/07/11 04:13:31;;;;;;;3.77;3.57;;;15.70;99.90;;;;;;4953445;28;20267;-75
2022/07/11 04:15:57;;;;;;;5.40;4.10;;;15.70;99.90;;;;;;4951656;28;20192;-75
2022/07/11 04:18:22;;;;;;;3.63;3.43;;;15.70;99.90;;;;;;4951118;28;20198;-76
2022/07/11 04:20:49;;;;;;;3.53;3.33;;;15.80;99.90;;;;;;4950083;28;20204;-77
2022/07/11 04:23:15;;;;;;;6.10;3.70;;;15.80;99.90;;;;;;4951396;28;20692;-76
2022/07/11 04:25:41;;;;;;;3.70;3.40;;;15.80;99.90;;;;;;4952533;28;20458;-75
2022/07/11 04:28:06;;;;;;;4.00;3.63;;;15.80;99.90;;;;;;4949614;28;20483;-75
2022/07/11 04:30:33;;;;;;;4.27;3.87;;;15.80;99.90;;;;;;4952796;28;20204;-73
2022/07/11 04:32:58;;;;;;;3.83;3.43;;;15.90;99.90;;;;;;4949050;28;20213;-76
2022/07/11 04:35:24;;;;;;;7.70;3.77;;;15.90;99.90;;;;;;4948162;28;20476;-76
2022/07/11 04:37:50;;;;;;;3.83;3.63;;;16.00;99.90;;;;;;4947100;28;20260;-75
2022/07/11 04:40:17;;;;;;;4.40;4.00;;;16.00;99.90;;;;;;4947433;29;20219;-76
2022/07/11 04:42:43;;;;;;;5.10;3.77;;;16.00;99.90;;;;;;4950061;28;20468;-75
2022/07/11 04:45:09;;;;;;;4.70;4.30;;;16.10;99.90;;;;;;4953255;28;20412;-74
2022/07/11 04:47:34;;;;;;;12.30;4.70;;;16.10;99.90;;;;;;4950409;28;20176;-75
2022/07/11 04:50:00;;;;;;;7.40;3.80;;;16.20;99.90;;;;;;4950873;28;20944;-72
2022/07/11 04:52:26;;;;;;;4.17;3.87;;;16.20;99.90;;;;;;4948728;28;20209;-75
2022/07/11 04:54:53;;;;;;;3.47;3.23;;;16.30;99.90;;;;;;4948848;29;20189;-76
2022/07/11 04:57:18;;;;;;;5.00;4.00;;;16.30;99.90;;;;;;4951776;28;20408;-77
2022/07/11 04:59:44;;;;;;;4.40;4.00;;;16.40;99.90;;;;;;4949800;29;20439;-75
2022/07/11 05:02:09;;;;;;;6.90;6.20;;;16.40;99.90;;;;;;4952163;28;20353;-75
2022/07/11 05:04:36;;;;;;;5.20;4.70;;;16.50;99.90;;;;;;4950561;28;20224;-76
2022/07/11 05:07:01;;;;;;;4.40;4.00;;;16.60;99.90;;;;;;4951996;28;20230;-75
2022/07/11 05:09:27;;;;;;;4.47;4.07;;;16.60;99.90;;;;;;4947494;28;20878;-76
2022/07/11 05:11:52;;;;;;;4.83;4.33;;;16.70;99.90;;;;;;4951522;28;20212;-75
2022/07/11 05:14:18;;;;;;;4.10;3.80;;;16.80;99.90;;;;;;4950401;28;20216;-75
2022/07/11 05:16:43;;;;;;;4.43;4.10;;;16.80;99.90;;;;;;4952387;28;20192;-75
2022/07/11 05:19:09;;;;;;;4.90;3.90;;;16.90;99.90;;;;;;4950819;28;20184;-75
2022/07/11 05:21:34;;;;;;;6.50;4.40;;;16.80;99.90;;;;;;4949133;28;21013;-75
2022/07/11 05:24:00;;;;;;;4.30;4.10;;;16.90;99.90;;;;;;4948361;28;20197;-72
2022/07/11 05:26:25;;;;;;;4.13;3.70;;;16.90;99.90;;;;;;4951254;28;20176;-75
2022/07/11 05:28:51;;;;;;;4.30;4.00;;;17.00;99.90;;;;;;4948785;28;20590;-76
2022/07/11 05:31:16;;;;;;;3.97;3.67;;;17.00;99.90;;;;;;4948820;28;20231;-75
2022/07/11 05:33:42;;;;;;;3.80;3.50;;;17.20;99.90;;;;;;4947943;28;20353;-73
2022/07/11 05:36:08;;;;;;;4.17;3.83;;;17.30;99.90;;;;;;4950063;28;20271;-75
2022/07/11 05:38:34;;;;;;;4.80;4.10;;;17.30;99.90;;;;;;4949801;28;20184;-74
2022/07/11 05:40:59;;;;;;;4.37;3.97;;;17.40;99.90;;;;;;4948806;28;20464;-73
2022/07/11 05:43:25;;;;;;;4.43;4.10;;;17.50;99.90;;;;;;4951618;28;20176;-75
2022/07/11 05:45:51;;;;;;;4.53;4.13;;;17.60;99.90;;;;;;4950040;28;20216;-75
2022/07/11 05:48:16;;;;;;;4.10;3.77;;;17.60;99.90;;;;;;4955440;28;20263;-76
2022/07/11 05:50:43;;;;;;;4.37;3.97;;;17.60;99.90;;;;;;4950641;28;20672;-75
2022/07/11 05:53:10;;;;;;;4.60;4.20;;;17.70;99.90;;;;;;4945594;29;20185;-73
2022/07/11 05:55:36;;;;;;;3.97;3.77;;;17.90;99.90;;;;;;4944475;29;20997;-77
2022/07/11 05:58:02;;;;;;;5.70;4.00;;;17.90;99.90;;;;;;4943995;29;20444;-74
2022/07/11 06:00:28;;;;;;;4.07;3.70;;;18.00;99.90;;;;;;4936341;29;20180;-75
2022/07/11 06:02:53;;;;;;;4.10;3.80;;;18.00;99.90;;;;;;4949305;29;20681;-75
2022/07/11 06:05:19;;;;;;;4.10;3.80;;;18.00;99.90;;;;;;4955961;28;20992;-74
2022/07/11 06:10:29;;;;;;;5.73;4.20;;;18.10;99.90;;;;;;4951203;29;20295;-77
2022/07/11 06:12:55;;;;;;;4.40;4.10;;;18.20;99.90;;;;;;4951323;28;21048;-76
2022/07/11 06:15:21;;;;;;;7.60;4.07;;;18.20;99.90;;;;;;4955833;29;20185;-74
2022/07/11 06:17:46;;;;;;;9.90;4.33;;;18.20;99.90;;;;;;4953467;28;20490;-75
2022/07/11 06:20:12;;;;;;;3.87;3.57;;;18.30;99.90;;;;;;4955890;28;20181;-74
2022/07/11 06:22:38;;;;;;;4.13;3.80;;;18.30;99.90;;;;;;4953635;28;20315;-75
2022/07/11 06:25:04;;;;;;;3.53;3.30;;;18.30;99.90;;;;;;4949935;28;20185;-74
2022/07/11 06:27:30;;;;;;;3.30;3.10;;;18.40;99.90;;;;;;4955017;28;20239;-76
2022/07/11 06:29:55;;;;;;;9.00;3.60;;;18.50;99.90;;;;;;4953329;28;20428;-75
2022/07/11 06:32:21;;;;;;;4.67;4.33;;;18.50;99.90;;;;;;4954305;28;20603;-76
2022/07/11 06:34:46;;;;;;;4.47;2.97;;;18.60;99.90;;;;;;4948806;28;20323;-76
2022/07/11 06:37:12;;;;;;;3.03;2.83;;;18.60;99.90;;;;;;4954082;28;20177;-75
2022/07/11 06:39:37;;;;;;;4.17;3.87;;;18.60;99.90;;;;;;4950967;28;20193;-76
2022/07/11 06:42:03;;;;;;;5.73;3.30;;;18.60;99.90;;;;;;4954560;28;20200;-74
2022/07/11 06:44:28;;;;;;;3.07;2.87;;;18.80;99.90;;;;;;4951184;28;20185;-76
2022/07/11 06:46:54;;;;;;;3.80;3.50;;;18.90;99.90;;;;;;4947895;29;20203;-76
2022/07/11 06:49:19;;;;;;;4.00;3.60;;;19.00;99.90;;;;;;4955128;28;20657;-74
2022/07/11 06:51:45;;;;;;;4.30;3.20;;;19.20;99.90;;;;;;4951871;28;20773;-75
2022/07/11 06:54:10;;;;;;;4.93;3.33;;;19.20;99.90;;;;;;4953004;28;20188;-76
2022/07/11 06:56:36;;;;;;;2.90;2.67;;;19.40;99.90;;;;;;4951630;28;20611;-77
2022/07/11 06:59:01;;;;;;;3.60;3.30;;;19.50;99.90;;;;;;4953556;28;20181;-75
2022/07/11 07:01:27;;;;;;;5.00;3.23;;;19.60;99.90;;;;;;4950365;28;20685;-77
2022/07/11 07:03:52;;;;;;;5.27;3.20;;;19.80;99.90;;;;;;4955059;28;20192;-76
2022/07/11 07:06:19;;;;;;;4.90;3.40;;;19.90;99.90;;;;;;4952966;28;20199;-75
2022/07/11 07:08:45;;;;;;;2.87;2.67;;;19.90;99.90;;;;;;4951415;28;20188;-76
2022/07/11 07:11:11;;;;;;;6.83;2.70;;;19.90;99.90;;;;;;4949457;28;20472;-76
2022/07/11 07:13:36;;;;;;;3.57;2.73;;;20.00;99.90;;;;;;4954591;28;20428;-76
2022/07/11 07:16:02;;;;;;;7.10;2.67;;;20.10;99.90;;;;;;4954765;28;20176;-73
2022/07/11 07:18:28;;;;;;;2.50;2.30;;;20.20;99.90;;;;;;4952487;28;20181;-74
2022/07/11 07:20:53;;;;;;;2.30;2.10;;;20.40;99.90;;;;;;4953247;28;20184;-73
2022/07/11 07:23:19;;;;;;;2.30;2.10;;;20.40;99.90;;;;;;4947304;28;20216;-76
2022/07/11 07:25:44;;;;;;;2.40;2.20;;;20.50;99.90;;;;;;4954293;28;20196;-76
2022/07/11 07:28:10;;;;;;;2.67;2.20;;;20.70;99.90;;;;;;4952906;28;20189;-77
2022/07/11 07:30:36;;;;;;;2.90;2.70;;;20.90;99.90;;;;;;4951767;28;20220;-74
2022/07/11 07:33:02;;;;;;;3.07;2.77;;;20.90;99.90;;;;;;4954871;28;20594;-75
2022/07/11 07:35:28;;;;;;;5.57;2.30;;;20.90;99.90;;;;;;4951706;28;20187;-76
2022/07/11 07:37:54;;;;;;;2.80;2.57;;;21.20;99.90;;;;;;4952980;28;20424;-76
2022/07/11 07:40:20;;;;;;;2.60;2.43;;;21.50;99.90;;;;;;4950567;28;20447;-73
2022/07/11 07:42:45;;;;;;;2.53;2.43;;;21.80;99.90;;;;;;4953547;28;20557;-76
2022/07/11 07:45:11;;;;;;;2.80;2.60;;;21.80;99.90;;;;;;4952159;28;20185;-76
2022/07/11 07:47:37;;;;;;;3.67;2.57;;;21.90;99.90;;;;;;4954238;28;20176;-76
2022/07/11 07:50:04;;;;;;;2.27;2.10;;;21.80;99.90;;;;;;4950990;28;20185;-77
2022/07/11 07:52:29;;;;;;;2.30;2.20;;;21.70;99.90;;;;;;4951942;28;20448;-77
2022/07/11 07:54:55;;;;;;;7.10;2.30;;;21.50;99.90;;;;;;4949498;28;20489;-76
2022/07/11 07:57:20;;;;;;;1.83;1.73;;;21.70;99.90;;;;;;4954098;28;20264;-76
2022/07/11 07:59:46;;;;;;;2.30;1.37;;;22.10;99.90;;;;;;4952578;28;20203;-76
2022/07/11 08:02:11;;;;;;;2.20;2.10;;;22.30;99.90;;;;;;4941308;28;20327;-76
2022/07/11 08:04:37;;;;;;;1.73;1.73;;;22.40;99.90;;;;;;4934533;29;20185;-76
2022/07/11 08:07:03;;;;;;;1.73;1.63;;;23.00;99.90;;;;;;4947596;29;20196;-75
2022/07/11 08:09:28;;;;;;;2.00;1.43;;;23.50;99.90;;;;;;4952005;28;20196;-76
2022/07/11 08:11:54;;;;;;;1.30;1.20;;;24.00;99.90;;;;;;4949234;28;20239;-76
2022/07/11 08:14:21;;;;;;;2.60;1.00;;;23.90;99.90;;;;;;4952143;28;20237;-73
2022/07/11 08:16:47;;;;;;;0.97;0.97;;;24.10;99.90;;;;;;4950980;28;20188;-77
2022/07/11 08:19:13;;;;;;;2.20;1.30;;;24.20;99.90;;;;;;4953846;28;20444;-77
2022/07/11 08:21:38;;;;;;;2.10;1.20;;;24.50;99.90;;;;;;4951529;28;20508;-77
2022/07/11 08:24:04;;;;;;;1.20;1.10;;;24.90;99.90;;;;;;4950869;28;20193;-77
2022/07/11 08:26:30;;;;;;;3.90;1.20;;;25.10;99.90;;;;;;4952912;28;20263;-78
2022/07/11 08:28:56;;;;;;;1.00;0.70;;;25.20;99.90;;;;;;4951481;28;20191;-77
2022/07/11 08:31:22;;;;;;;1.20;0.97;;;25.20;99.90;;;;;;4952223;28;20234;-76
2022/07/11 08:33:48;;;;;;;0.93;0.83;;;25.60;99.90;;;;;;4945038;28;20467;-77
2022/07/11 08:36:13;;;;;;;2.60;0.90;;;25.70;99.90;;;;;;4964601;28;20181;-77
2022/07/11 08:38:43;;;;;;;2.20;0.77;;;25.50;99.90;;;;;;4949788;28;20666;-76
2022/07/11 08:41:10;;;;;;;1.73;1.00;;;24.90;99.90;;;;;;4952795;28;20200;-77
2022/07/11 08:43:36;;;;;;;1.00;0.90;;;24.60;99.90;;;;;;4951121;28;22115;-77
2022/07/11 08:46:01;;;;;;;1.63;0.90;;;24.30;99.90;;;;;;4952309;28;21019;-79
2022/07/11 08:48:28;;;;;;;1.37;0.90;;;24.00;99.90;;;;;;4952413;28;20460;-77
2022/07/11 08:50:53;;;;;;;0.93;0.60;;;23.90;99.90;;;;;;4950112;28;20208;-77
2022/07/11 08:53:19;;;;;;;1.53;0.90;;;24.40;99.90;;;;;;4951191;28;20908;-76
2022/07/11 08:55:45;;;;;;;1.10;1.00;;;25.10;99.90;;;;;;4950488;29;20192;-77
2022/07/11 08:58:12;;;;;;;0.97;0.87;;;25.80;99.90;;;;;;4952554;28;20263;-77
2022/07/11 09:00:38;;;;;;;0.80;0.80;;;25.90;99.90;;;;;;4949808;28;20447;-75
2022/07/11 09:03:05;;;;;;;1.30;1.00;;;25.40;99.90;;;;;;4952365;28;20424;-77
2022/07/11 09:05:32;;;;;;;0.80;0.80;;;24.90;99.90;;;;;;4950382;28;20441;-77
2022/07/11 09:07:57;;;;;;;2.30;1.00;;;24.50;99.90;;;;;;4950740;28;20447;-77
2022/07/11 09:10:23;;;;;;;1.23;0.90;;;23.90;99.90;;;;;;4949849;28;20468;-75
2022/07/11 09:13:10;;;;;;;0.80;0.80;;;23.80;99.90;;;;;;4947969;28;20709;-77
2022/07/11 09:15:41;;;;;;;1.20;0.90;;;23.70;99.90;;;;;;4952148;28;20180;-77
2022/07/11 09:18:30;;;;;;;0.90;0.70;;;23.50;99.90;;;;;;4948518;28;20523;-77
2022/07/11 09:26:40;;;;;;;2.20;0.63;;;23.40;99.90;;;;;;4952920;29;20419;-77
2022/07/11 09:29:06;;;;;;;0.90;0.73;;;24.40;99.90;;;;;;4937822;28;20445;-77
2022/07/11 09:31:33;;;;;;;2.80;0.87;;;25.30;99.90;;;;;;4932570;29;20491;-77
2022/07/11 09:34:08;;;;;;;1.20;0.60;;;25.50;99.90;;;;;;4939681;29;20757;-77
2022/07/11 09:36:38;;;;;;;3.83;0.60;;;25.20;99.90;;;;;;4951033;28;20446;-77
2022/07/11 09:39:05;;;;;;;0.60;0.60;;;25.20;99.90;;;;;;4950270;28;20436;-77
2022/07/11 09:41:33;;;;;;;0.83;0.83;;;25.50;99.90;;;;;;4933308;28;20456;-78
2022/07/11 09:44:22;;;;;;;1.20;0.77;;;25.60;99.90;;;;;;4932766;28;20428;-75
2022/07/11 09:46:50;;;;;;;2.80;0.90;;;25.20;99.90;;;;;;4933700;28;20410;-76
2022/07/11 09:49:28;;;;;;;0.70;0.70;;;25.10;99.90;;;;;;4938368;28;20431;-77
2022/07/11 09:51:53;;;;;;;2.93;0.70;;;25.10;99.90;;;;;;4950300;28;20538;-74
2022/07/11 09:54:19;;;;;;;2.73;0.60;;;25.80;99.90;;;;;;4950664;28;20440;-73
2022/07/11 09:56:51;;;;;;;3.70;0.67;;;26.70;99.90;;;;;;4951126;28;20556;-74
2022/07/11 09:59:17;;;;;;;1.67;0.50;;;27.10;99.90;;;;;;4951680;28;20184;-74
2022/07/11 10:01:43;;;;;;;1.30;0.50;;;27.60;99.90;;;;;;4949689;28;20864;-77
2022/07/11 10:04:10;;;;;;;0.60;0.50;;;28.00;99.90;;;;;;4949719;29;20189;-75
2022/07/11 10:06:37;;;;;;;1.00;0.50;;;28.10;99.90;;;;;;4949418;28;20553;-75
2022/07/11 10:09:04;;;;;;;1.07;0.70;;;28.10;99.90;;;;;;4949957;28;20771;-75
2022/07/11 10:11:31;;;;;;;0.70;0.70;;;27.90;99.90;;;;;;4951502;28;20543;-74
2022/07/11 10:13:59;;;;;;;0.97;0.70;;;27.60;99.90;;;;;;4949299;28;20443;-74
2022/07/11 10:16:34;;;;;;;2.60;0.60;;;27.40;99.90;;;;;;4952177;28;20412;-75
2022/07/11 10:19:12;;;;;;;2.53;0.80;;;27.00;99.90;;;;;;4948340;28;20447;-73
2022/07/11 10:21:42;;;;;;;0.70;0.70;;;26.50;99.90;;;;;;4951656;28;20809;-74
2022/07/11 10:24:30;;;;;;;2.00;1.27;;;26.30;99.90;;;;;;4944760;28;20449;-73
2022/07/11 10:27:30;;;;;;;1.47;0.80;;;26.20;99.90;;;;;;4951344;29;20434;-75
2022/07/11 10:29:55;;;;;;;0.97;0.80;;;26.00;99.90;;;;;;4949623;28;20467;-75
2022/07/11 10:32:21;;;;;;;0.97;0.97;;;26.20;99.90;;;;;;4950374;28;21031;-74
2022/07/11 10:35:09;;;;;;;1.83;0.77;;;26.80;99.90;;;;;;4950930;28;20271;-75
2022/07/11 10:37:48;;;;;;;0.67;0.67;;;27.30;99.90;;;;;;4955038;28;20243;-74
2022/07/11 10:40:14;;;;;;;0.83;0.83;;;27.60;99.90;;;;;;4951495;28;20433;-73
2022/07/11 10:42:41;;;;;;;0.70;0.70;;;27.70;99.90;;;;;;4953847;28;20519;-72
2022/07/11 10:45:09;;;;;;;0.87;0.73;;;28.00;99.90;;;;;;4955616;28;20208;-74
2022/07/11 10:47:43;;;;;;;1.00;0.77;;;28.20;99.90;;;;;;4950637;28;20448;-74
2022/07/11 10:50:30;;;;;;;2.70;0.87;;;28.10;99.90;;;;;;4955328;28;20416;-74
2022/07/11 10:52:57;;;;;;;6.47;5.80;;;27.60;99.90;;;;;;4953286;28;20452;-74
2022/07/11 10:55:36;;;;;;;3.90;1.20;;;27.30;99.90;;;;;;4938825;28;20443;-74
2022/07/11 10:58:10;;;;;;;2.70;0.87;;;26.70;99.90;;;;;;4940526;28;22107;-73
2022/07/11 11:00:36;;;;;;;0.93;0.73;;;26.40;99.90;;;;;;4953958;28;20428;-75
2022/07/11 11:03:10;;;;;;;0.80;0.80;;;26.20;99.90;;;;;;4952608;28;20443;-74
2022/07/11 11:05:49;;;;;;;0.80;0.73;;;25.80;99.90;;;;;;4955205;28;20730;-74
2022/07/11 11:08:33;;;;;;;0.80;0.80;;;25.60;99.90;;;;;;4952641;28;20842;-74
2022/07/11 11:11:02;;;;;;;1.20;1.10;;;25.60;99.90;;;;;;4950062;28;20558;-74
2022/07/11 11:13:29;;;;;;;0.70;0.70;;;25.50;99.90;;;;;;4953181;28;20778;-74
2022/07/11 11:15:59;;;;;;;1.03;0.90;;;25.40;99.90;;;;;;4953382;28;20567;-75
2022/07/11 11:18:25;;;;;;;0.60;0.60;;;25.40;99.90;;;;;;4954711;28;20758;-75
2022/07/11 11:20:59;;;;;;;0.80;0.70;;;25.50;99.90;;;;;;4949223;28;20447;-74
2022/07/11 11:23:27;;;;;;;0.87;0.87;;;25.60;99.90;;;;;;4953712;28;20184;-74
2022/07/11 11:25:52;;;;;;;0.70;0.70;;;25.80;99.90;;;;;;4946359;29;20972;-74
2022/07/11 11:28:22;;;;;;;1.17;0.90;;;26.20;99.90;;;;;;4954324;28;20424;-74
2022/07/11 11:30:55;;;;;;;1.37;0.90;;;26.80;99.90;;;;;;4951130;28;20220;-75
2022/07/11 11:33:21;;;;;;;0.70;0.70;;;27.30;99.90;;;;;;4951001;28;20960;-73
2022/07/11 11:36:05;;;;;;;0.80;0.80;;;27.70;99.90;;;;;;4949572;29;20465;-74
2022/07/11 11:38:38;;;;;;;0.90;0.80;;;28.00;99.90;;;;;;4951663;29;20193;-74
2022/07/11 11:41:07;;;;;;;1.53;1.10;;;28.00;99.90;;;;;;4952290;28;20807;-73
2022/07/11 11:43:35;;;;;;;0.83;0.83;;;27.90;99.90;;;;;;4950036;28;20869;-74
2022/07/11 11:46:04;;;;;;;0.80;0.80;;;27.60;99.90;;;;;;4952824;28;20408;-74
2022/07/11 11:48:33;;;;;;;4.43;0.93;;;27.10;99.90;;;;;;4943558;28;20437;-76
2022/07/11 11:51:03;;;;;;;1.27;1.10;;;26.70;99.90;;;;;;4952924;28;20848;-72
2022/07/11 11:53:43;;;;;;;0.77;0.77;;;26.20;99.90;;;;;;4950685;28;20503;-74
2022/07/11 11:56:16;;;;;;;1.13;0.80;;;25.60;99.90;;;;;;4950612;29;20507;-74
2022/07/11 11:58:43;;;;;;;2.13;0.83;;;25.40;99.90;;;;;;4951851;28;20516;-74
2022/07/11 12:01:10;;;;;;;1.90;1.50;;;25.20;99.90;;;;;;4952525;28;20460;-75
2022/07/11 12:03:58;;;;;;;1.00;1.00;;;25.20;99.90;;;;;;4951891;28;20957;-73
2022/07/11 12:06:26;;;;;;;5.20;1.43;;;25.30;99.90;;;;;;4951591;28;20975;-74
2022/07/11 12:08:57;;;;;;;1.10;1.10;;;25.30;99.90;;;;;;4951681;28;20433;-74
2022/07/11 12:11:23;;;;;;;1.03;1.03;;;25.50;99.90;;;;;;4933294;29;20473;-74
2022/07/11 12:13:58;;;;;;;1.57;1.13;;;25.80;99.90;;;;;;4934696;29;20428;-74
2022/07/11 12:16:43;;;;;;;6.73;1.20;;;26.10;99.90;;;;;;4949288;28;20179;-75
2022/07/11 12:19:15;;;;;;;1.30;1.20;;;26.00;99.90;;;;;;4953672;28;20412;-75
2022/07/11 12:21:43;;;;;;;1.57;1.23;;;25.80;99.90;;;;;;4948257;28;20470;-73
2022/07/11 12:24:11;;;;;;;1.50;1.10;;;25.70;99.90;;;;;;4950968;28;20436;-74
2022/07/11 12:26:39;;;;;;;1.47;1.00;;;25.30;99.90;;;;;;4949331;28;20448;-74
2022/07/11 12:29:16;;;;;;;1.63;1.20;;;25.30;99.90;;;;;;4953310;28;20921;-74
2022/07/11 12:31:50;;;;;;;1.23;1.13;;;25.30;99.90;;;;;;4950111;28;20566;-73
2022/07/11 12:34:21;;;;;;;1.60;1.50;;;25.40;99.90;;;;;;4951271;28;20440;-71
2022/07/11 12:36:47;;;;;;;1.43;1.27;;;25.50;99.90;;;;;;4949512;28;20511;-72
2022/07/11 12:39:23;;;;;;;1.50;1.40;;;25.60;99.90;;;;;;4951555;28;20437;-74
2022/07/11 12:41:51;;;;;;;1.20;1.10;;;25.50;99.90;;;;;;4957248;28;20871;-75
2022/07/11 12:47:10;;;;;;;1.30;1.20;;;25.70;99.90;;;;;;4938527;28;20432;-73
2022/07/11 12:49:35;;;;;;;2.93;1.10;;;25.70;99.90;;;;;;4950214;28;20817;-74
2022/07/11 12:52:01;;;;;;;2.20;1.57;;;25.80;99.90;;;;;;4951270;28;20464;-72
2022/07/11 12:54:33;;;;;;;1.67;1.13;;;25.80;99.90;;;;;;4946401;28;20581;-73
2022/07/11 12:57:01;;;;;;;1.40;1.30;;;25.50;99.90;;;;;;4952147;28;20199;-74
2022/07/11 12:59:28;;;;;;;1.00;1.00;;;25.60;99.90;;;;;;4948899;28;20442;-73
2022/07/11 13:02:03;;;;;;;1.67;1.47;;;25.80;99.90;;;;;;4951941;28;20447;-74
2022/07/11 13:04:37;;;;;;;2.13;1.93;;;26.00;99.90;;;;;;4939517;29;20796;-73
2022/07/11 13:10:13;;;;;;;4.30;1.73;;;26.00;99.90;;;;;;4948887;29;20574;-74
2022/07/11 13:12:40;;;;;;;2.20;1.50;;;26.10;99.90;;;;;;4952066;28;20562;-74
2022/07/11 13:15:11;;;;;;;1.50;1.40;;;26.10;99.90;;;;;;4948591;28;20779;-73
2022/07/11 13:17:44;;;;;;;4.43;4.13;;;26.20;99.90;;;;;;4952468;28;20424;-73
2022/07/11 13:20:15;;;;;;;1.77;1.30;;;25.90;99.90;;;;;;4950062;28;20413;-74
2022/07/11 13:22:42;;;;;;;1.40;1.40;;;25.70;99.90;;;;;;4943715;29;20471;-73
2022/07/11 13:25:08;;;;;;;2.40;1.70;;;25.70;99.90;;;;;;4950302;28;20527;-74
2022/07/11 13:27:34;;;;;;;2.83;1.53;;;25.70;99.90;;;;;;4947300;29;20436;-74
2022/07/11 13:30:00;;;;;;;1.40;1.13;;;25.70;99.90;;;;;;4951275;28;20424;-70
2022/07/11 13:32:26;;;;;;;1.63;1.53;;;25.40;99.90;;;;;;4944987;28;20568;-73
2022/07/11 13:34:51;;;;;;;1.40;1.30;;;25.40;99.90;;;;;;4942152;29;20466;-74
2022/07/11 13:37:17;;;;;;;2.13;1.50;;;25.40;99.90;;;;;;4949178;28;20181;-74
2022/07/11 13:39:43;;;;;;;3.17;1.57;;;25.60;99.90;;;;;;4950187;28;20192;-74
2022/07/11 13:42:08;;;;;;;3.50;2.07;;;25.50;99.90;;;;;;4949196;28;20222;-72
2022/07/11 13:44:34;;;;;;;1.47;1.37;;;25.50;99.90;;;;;;4950211;28;20334;-74
2022/07/11 13:47:00;;;;;;;2.73;2.00;;;25.40;99.90;;;;;;4950718;28;20239;-71
2022/07/11 13:49:26;;;;;;;1.97;1.87;;;25.40;99.90;;;;;;4949615;28;20444;-74
2022/07/11 13:51:52;;;;;;;2.93;1.50;;;25.40;99.90;;;;;;4949801;29;20291;-73
2022/07/11 13:54:18;;;;;;;1.93;1.73;;;25.30;99.90;;;;;;4949086;28;20185;-73
2022/07/11 13:56:43;;;;;;;2.40;1.30;;;25.10;99.90;;;;;;4952027;28;20420;-74
2022/07/11 13:59:09;;;;;;;2.20;1.43;;;25.10;99.90;;;;;;4949486;28;20382;-74
2022/07/11 14:01:34;;;;;;;2.30;1.87;;;25.20;99.90;;;;;;4950975;28;20263;-75
2022/07/11 14:04:00;;;;;;;2.67;1.53;;;25.30;99.90;;;;;;4949721;28;20185;-71
2022/07/11 14:06:25;;;;;;;1.73;1.47;;;25.20;99.90;;;;;;4949311;28;20207;-73
2022/07/11 14:08:51;;;;;;;1.70;1.60;;;25.30;99.90;;;;;;4952344;28;20236;-73
2022/07/11 14:11:16;;;;;;;2.40;1.70;;;25.30;99.90;;;;;;4953540;28;20675;-73
2022/07/11 14:13:42;;;;;;;2.87;1.77;;;25.30;99.90;;;;;;4955544;28;20199;-73
2022/07/11 14:16:08;;;;;;;2.70;1.70;;;25.20;99.90;;;;;;4950837;28;20212;-73
2022/07/11 14:18:33;;;;;;;2.33;1.43;;;25.20;99.90;;;;;;4955995;28;20259;-72
2022/07/11 14:20:59;;;;;;;2.43;2.10;;;25.20;99.90;;;;;;4952778;28;20219;-73
2022/07/11 14:23:25;;;;;;;3.50;2.50;;;25.10;99.90;;;;;;4955753;28;20185;-73
2022/07/11 14:25:51;;;;;;;1.73;1.63;;;25.00;99.90;;;;;;4952034;28;20189;-74
2022/07/11 14:28:17;;;;;;;3.50;2.07;;;24.60;99.90;;;;;;4955752;28;20412;-74
2022/07/11 14:30:44;;;;;;;3.80;2.17;;;24.60;99.90;;;;;;4953647;28;20550;-74
2022/07/11 14:33:09;;;;;;;2.83;1.83;;;24.60;99.90;;;;;;4952992;29;20992;-74
2022/07/11 14:35:35;;;;;;;1.93;1.70;;;24.70;99.90;;;;;;4944894;28;20436;-73